Time;durP1;ratioP1;P1;durP2;ratioP2;P2;SDS_P1;SDS_P2;PMS_P1;PMS_P2;Temp;Humidity;BMP_temperature;BMP_pressure;BME280_temperature;BME280_humidity;BME280_pressure;Samples;Min_cycle;Max_cycle;Signal;HPM_P1;HPM_P2
2022/09/06 00:01:50;;;;;;;8.82;3.45;;;20.90;99.90;;;;;;4916375;29;20032;-86
2022/09/06 00:04:16;;;;;;;10.35;3.08;;;20.90;99.90;;;;;;4916294;29;20643;-86
2022/09/06 00:06:41;;;;;;;9.00;3.72;;;20.80;99.90;;;;;;4916203;29;20024;-86
2022/09/06 00:09:07;;;;;;;12.43;4.20;;;20.70;99.90;;;;;;4916143;29;20024;-86
2022/09/06 00:11:33;;;;;;;9.60;3.85;;;20.70;99.90;;;;;;4915852;29;20016;-87
2022/09/06 00:13:58;;;;;;;11.13;4.28;;;20.60;99.90;;;;;;4898976;29;20506;-90
2022/09/06 00:16:24;;;;;;;12.73;4.63;;;20.60;99.90;;;;;;4915154;29;20080;-87
2022/09/06 00:18:54;;;;;;;9.32;4.30;;;20.60;99.90;;;;;;4883274;29;20016;-85
2022/09/06 00:21:25;;;;;;;13.25;4.53;;;20.70;99.90;;;;;;4898896;29;20055;-87
2022/09/06 00:23:51;;;;;;;11.60;3.58;;;20.60;99.90;;;;;;4915860;29;20466;-86
2022/09/06 00:26:18;;;;;;;8.77;3.60;;;20.60;99.90;;;;;;4916047;29;20036;-86
2022/09/06 00:28:44;;;;;;;11.30;4.30;;;20.50;99.90;;;;;;4898992;29;20576;-85
2022/09/06 00:31:12;;;;;;;7.93;3.88;;;20.50;99.90;;;;;;4915755;29;20048;-86
2022/09/06 00:33:39;;;;;;;9.20;4.25;;;20.50;99.90;;;;;;4915734;29;20516;-86
2022/09/06 00:36:05;;;;;;;9.00;4.00;;;20.50;99.90;;;;;;4898607;29;20666;-89
2022/09/06 00:38:31;;;;;;;12.73;4.55;;;20.40;99.90;;;;;;4898878;29;20032;-86
2022/09/06 00:40:57;;;;;;;7.55;4.35;;;20.40;99.90;;;;;;4898496;29;20032;-87
2022/09/06 00:43:23;;;;;;;12.23;4.63;;;20.40;99.90;;;;;;4894401;29;20036;-86
2022/09/06 00:45:49;;;;;;;12.88;4.55;;;20.40;99.90;;;;;;4915699;29;20438;-86
2022/09/06 00:48:16;;;;;;;11.88;4.70;;;20.30;99.90;;;;;;4915538;29;20501;-86
2022/09/06 00:50:44;;;;;;;10.35;4.65;;;20.20;99.90;;;;;;4915591;29;20618;-86
2022/09/06 00:53:10;;;;;;;11.13;4.55;;;20.30;99.90;;;;;;4915293;29;20389;-86
2022/09/06 00:55:36;;;;;;;12.23;4.70;;;20.20;99.90;;;;;;4915237;29;20024;-86
2022/09/06 00:58:02;;;;;;;10.98;4.38;;;20.20;99.90;;;;;;4915243;29;20020;-87
2022/09/06 01:00:28;;;;;;;7.93;4.05;;;20.20;99.90;;;;;;4898436;29;20035;-86
2022/09/06 01:02:54;;;;;;;11.05;4.00;;;20.10;99.90;;;;;;4915268;29;20043;-86
2022/09/06 01:05:22;;;;;;;7.13;4.30;;;20.10;99.90;;;;;;4915315;29;20028;-87
2022/09/06 01:08:17;;;;;;;13.07;4.28;;;20.10;99.90;;;;;;4915442;29;20043;-86
2022/09/06 01:10:43;;;;;;;;;;;20.00;99.90;;;;;;4904124;29;20036;-89
2022/09/06 01:13:33;;;;;;;10.82;4.53;;;20.00;99.90;;;;;;4897959;29;20061;-86
2022/09/06 01:16:24;;;;;;;9.20;4.00;;;20.00;99.90;;;;;;4911189;29;20434;-87
2022/09/06 01:19:11;;;;;;;10.38;3.85;;;19.90;99.90;;;;;;4914909;29;20078;-88
2022/09/06 01:22:21;;;;;;;7.00;4.07;;;19.90;99.90;;;;;;4910532;29;20032;-87
2022/09/06 01:24:50;;;;;;;7.15;4.07;;;19.90;99.90;;;;;;4909659;29;20521;-87
2022/09/06 01:27:57;;;;;;;13.82;4.57;;;19.80;99.90;;;;;;4914438;29;20036;-87
2022/09/06 01:30:24;;;;;;;10.57;4.53;;;19.80;99.90;;;;;;4914645;29;20040;-87
2022/09/06 01:32:55;;;;;;;9.15;4.40;;;19.80;99.90;;;;;;4914830;29;20059;-86
2022/09/06 01:35:49;;;;;;;11.43;4.75;;;19.80;99.90;;;;;;4914634;29;20738;-87
2022/09/06 01:38:16;;;;;;;7.57;4.40;;;19.80;99.90;;;;;;4911555;29;20047;-86
2022/09/06 01:40:42;;;;;;;11.13;4.70;;;19.90;99.90;;;;;;4897117;29;20605;-86
2022/09/06 01:43:11;;;;;;;7.88;4.38;;;19.80;99.90;;;;;;4914689;29;20097;-86
2022/09/06 01:45:37;;;;;;;8.70;4.55;;;19.80;99.90;;;;;;4914604;29;20031;-86
2022/09/06 01:48:10;;;;;;;10.70;4.70;;;19.80;99.90;;;;;;4914534;29;20028;-86
2022/09/06 01:51:12;;;;;;;9.00;4.65;;;19.80;99.90;;;;;;4914456;29;20028;-86
2022/09/06 01:53:45;;;;;;;10.70;4.90;;;19.80;99.90;;;;;;4892457;29;20031;-86
2022/09/06 01:56:34;;;;;;;10.25;4.15;;;19.80;99.90;;;;;;4914007;29;20043;-86
2022/09/06 01:59:29;;;;;;;11.70;4.97;;;19.80;99.90;;;;;;4914286;29;20028;-86
2022/09/06 02:02:21;;;;;;;11.13;4.63;;;19.80;99.90;;;;;;4893792;29;20048;-86
2022/09/06 02:05:03;;;;;;;9.13;4.10;;;19.80;99.90;;;;;;4877088;29;20552;-89
2022/09/06 02:07:31;;;;;;;7.65;4.10;;;19.80;99.90;;;;;;4891314;29;20059;-86
2022/09/06 02:10:05;;;;;;;10.00;3.92;;;19.80;99.90;;;;;;4911996;29;20039;-86
2022/09/06 02:12:32;;;;;;;10.60;4.32;;;19.80;99.90;;;;;;4891956;29;20087;-87
2022/09/06 02:14:58;;;;;;;10.20;4.60;;;19.80;99.90;;;;;;4912487;29;20044;-86
2022/09/06 02:17:29;;;;;;;12.52;4.47;;;19.80;99.90;;;;;;4913789;29;20095;-86
2022/09/06 02:20:04;;;;;;;13.57;5.57;;;19.80;99.90;;;;;;4913900;29;20032;-86
2022/09/06 02:22:35;;;;;;;11.43;4.38;;;19.80;99.90;;;;;;4895603;29;20040;-87
2022/09/06 02:25:02;;;;;;;9.52;4.60;;;19.80;99.90;;;;;;4913904;29;20024;-89
2022/09/06 02:27:28;;;;;;;9.55;4.32;;;19.90;99.90;;;;;;4896854;29;20036;-86
2022/09/06 02:29:53;;;;;;;8.60;4.90;;;19.90;99.90;;;;;;4913717;29;20678;-86
2022/09/06 02:32:22;;;;;;;9.55;4.70;;;19.90;99.90;;;;;;4913651;29;20036;-87
2022/09/06 02:34:51;;;;;;;13.75;4.30;;;19.90;99.90;;;;;;4913848;29;20024;-87
2022/09/06 02:37:17;;;;;;;13.65;4.82;;;19.80;99.90;;;;;;4913632;29;20027;-86
2022/09/06 02:39:43;;;;;;;9.50;5.10;;;19.90;99.90;;;;;;4912988;29;20020;-86
2022/09/06 02:42:11;;;;;;;13.00;4.38;;;19.90;99.90;;;;;;4913652;29;20149;-86
2022/09/06 02:44:37;;;;;;;7.25;4.50;;;19.90;99.90;;;;;;4913640;29;20012;-86
2022/09/06 02:47:03;;;;;;;11.77;5.07;;;19.90;99.90;;;;;;4913766;29;20044;-86
2022/09/06 02:49:30;;;;;;;12.07;4.80;;;20.00;99.90;;;;;;4913633;29;20769;-86
2022/09/06 02:51:56;;;;;;;9.55;4.32;;;20.00;99.90;;;;;;4913758;29;20060;-86
2022/09/06 02:54:22;;;;;;;8.77;4.20;;;20.10;99.90;;;;;;4913432;29;20351;-87
2022/09/06 02:56:48;;;;;;;10.32;4.10;;;20.10;99.90;;;;;;4913455;29;20040;-86
2022/09/06 02:59:13;;;;;;;9.35;4.80;;;20.10;99.90;;;;;;4913575;29;20108;-86
2022/09/06 03:01:39;;;;;;;10.40;4.53;;;20.20;99.90;;;;;;4913306;29;20040;-86
2022/09/06 03:04:05;;;;;;;11.00;5.00;;;20.20;99.90;;;;;;4893486;29;20032;-87
2022/09/06 03:06:31;;;;;;;7.90;4.35;;;20.30;99.90;;;;;;4912794;29;20540;-86
2022/09/06 03:08:58;;;;;;;10.85;5.10;;;20.30;99.90;;;;;;4913663;29;20020;-87
2022/09/06 03:11:24;;;;;;;10.30;4.95;;;20.40;99.90;;;;;;4913304;29;20031;-86
2022/09/06 03:13:51;;;;;;;10.30;4.07;;;20.40;99.90;;;;;;4913305;29;20017;-86
2022/09/06 03:16:17;;;;;;;8.55;4.10;;;20.40;99.90;;;;;;4895998;29;20039;-86
2022/09/06 03:18:43;;;;;;;12.63;5.60;;;20.40;99.90;;;;;;4912974;29;20024;-87
2022/09/06 03:21:08;;;;;;;9.00;4.60;;;20.40;99.90;;;;;;4913059;29;20439;-86
2022/09/06 03:23:34;;;;;;;8.90;4.72;;;20.40;99.90;;;;;;4896165;29;20083;-88
2022/09/06 03:26:00;;;;;;;11.02;5.05;;;20.40;99.90;;;;;;4913243;29;20020;-90
2022/09/06 03:28:26;;;;;;;16.02;5.03;;;20.40;99.90;;;;;;4894407;29;20048;-86
2022/09/06 03:30:52;;;;;;;12.40;4.60;;;20.50;99.90;;;;;;4896331;29;20035;-87
2022/09/06 03:33:18;;;;;;;12.70;4.97;;;20.50;99.90;;;;;;4911992;29;20036;-87
2022/09/06 03:35:50;;;;;;;11.85;5.07;;;20.40;99.90;;;;;;4889853;29;20024;-86
2022/09/06 03:38:16;;;;;;;10.70;4.97;;;20.50;99.90;;;;;;4912992;29;20028;-87
2022/09/06 03:40:49;;;;;;;12.88;4.93;;;20.50;99.90;;;;;;4912711;29;20024;-86
2022/09/06 03:43:16;;;;;;;11.05;5.43;;;20.50;99.90;;;;;;4913094;29;20040;-86
2022/09/06 03:45:50;;;;;;;10.55;5.05;;;20.50;99.90;;;;;;4895919;29;20068;-86
2022/09/06 03:48:17;;;;;;;12.50;5.53;;;20.50;99.90;;;;;;4913198;29;20107;-86
2022/09/06 03:50:45;;;;;;;13.13;5.18;;;20.50;99.90;;;;;;4914427;29;20268;-86
2022/09/06 03:53:10;;;;;;;9.93;5.72;;;20.60;99.90;;;;;;4916355;29;20024;-87
2022/09/06 03:55:36;;;;;;;9.80;5.65;;;20.60;99.90;;;;;;4916272;29;20024;-86
2022/09/06 03:58:02;;;;;;;11.05;5.72;;;20.60;99.90;;;;;;4916195;29;20031;-86
2022/09/06 04:00:27;;;;;;;11.00;5.93;;;20.60;99.90;;;;;;4893212;29;20091;-86
2022/09/06 04:02:53;;;;;;;9.68;4.85;;;20.60;99.90;;;;;;4916197;29;20062;-86
2022/09/06 04:05:18;;;;;;;13.73;6.20;;;20.60;99.90;;;;;;4916434;29;20715;-86
2022/09/06 04:07:44;;;;;;;10.80;5.70;;;20.60;99.90;;;;;;4916327;29;20057;-86
2022/09/06 04:10:10;;;;;;;10.48;5.53;;;20.60;99.90;;;;;;4916056;29;20036;-86
2022/09/06 04:12:35;;;;;;;13.75;5.47;;;20.60;99.90;;;;;;4916190;29;20104;-87
2022/09/06 04:15:01;;;;;;;12.38;5.43;;;20.60;99.90;;;;;;4916206;29;20028;-86
2022/09/06 04:17:27;;;;;;;11.48;5.25;;;20.60;99.90;;;;;;4915901;29;20103;-86
2022/09/06 04:19:52;;;;;;;10.15;5.60;;;20.70;99.90;;;;;;4915924;29;20118;-88
2022/09/06 04:22:18;;;;;;;9.93;5.40;;;20.60;99.90;;;;;;4915832;29;20028;-87
2022/09/06 04:24:43;;;;;;;11.30;4.97;;;20.70;99.90;;;;;;4915543;29;20028;-88
2022/09/06 04:27:09;;;;;;;8.40;5.03;;;20.70;99.90;;;;;;4915855;29;20095;-87
2022/09/06 04:29:35;;;;;;;10.32;5.22;;;20.70;99.90;;;;;;4915826;29;20051;-86
2022/09/06 04:32:00;;;;;;;12.80;4.82;;;20.70;99.90;;;;;;4916130;29;20499;-91
2022/09/06 04:34:26;;;;;;;14.82;5.35;;;20.70;99.90;;;;;;4915995;29;20036;-86
2022/09/06 04:36:52;;;;;;;14.18;5.50;;;20.70;99.90;;;;;;4915948;29;20591;-86
2022/09/06 04:39:17;;;;;;;15.68;5.28;;;20.60;99.90;;;;;;4915559;29;20087;-87
2022/09/06 04:41:43;;;;;;;9.57;4.82;;;20.60;99.90;;;;;;4915347;29;20048;-86
2022/09/06 04:44:08;;;;;;;11.13;5.55;;;20.60;99.90;;;;;;4915457;29;20099;-86
2022/09/06 04:46:34;;;;;;;12.18;4.88;;;20.60;99.90;;;;;;4915689;29;20067;-89
2022/09/06 04:49:00;;;;;;;12.15;5.43;;;20.60;99.90;;;;;;4915748;29;20028;-88
2022/09/06 04:51:26;;;;;;;9.88;5.20;;;20.50;99.90;;;;;;4894369;29;20035;-87
2022/09/06 04:53:52;;;;;;;13.45;4.90;;;20.50;99.90;;;;;;4915467;29;20434;-87
2022/09/06 04:56:20;;;;;;;12.75;5.35;;;20.50;99.90;;;;;;4896814;29;20066;-86
2022/09/06 04:58:47;;;;;;;9.95;4.85;;;20.50;99.90;;;;;;4915348;29;20043;-86
2022/09/06 05:01:14;;;;;;;14.05;5.38;;;20.50;99.90;;;;;;4897977;29;20437;-86
2022/09/06 05:03:40;;;;;;;15.27;6.20;;;20.50;99.90;;;;;;4914700;29;20028;-86
2022/09/06 05:06:11;;;;;;;10.23;4.85;;;20.60;99.90;;;;;;4897338;29;20048;-87
2022/09/06 05:08:38;;;;;;;11.02;5.50;;;20.60;99.90;;;;;;4898011;29;20032;-86
2022/09/06 05:11:05;;;;;;;9.32;4.85;;;20.60;99.90;;;;;;4915104;29;20523;-86
2022/09/06 05:13:30;;;;;;;10.95;5.25;;;20.60;99.90;;;;;;4915041;29;20024;-86
2022/09/06 05:16:00;;;;;;;13.45;4.95;;;20.60;99.90;;;;;;4915136;29;20453;-86
2022/09/06 05:18:25;;;;;;;12.32;5.65;;;20.60;99.90;;;;;;4914957;29;20028;-87
2022/09/06 05:20:52;;;;;;;17.50;5.55;;;20.60;99.90;;;;;;4914900;29;20031;-86
2022/09/06 05:23:18;;;;;;;10.40;4.97;;;20.70;99.90;;;;;;4916298;29;20259;-80
2022/09/06 05:25:44;;;;;;;10.35;5.93;;;20.60;99.90;;;;;;4915326;29;20493;-80
2022/09/06 05:28:09;;;;;;;11.15;4.75;;;20.60;99.90;;;;;;4914678;29;20036;-79
2022/09/06 05:30:35;;;;;;;9.55;5.40;;;20.60;99.90;;;;;;4914664;29;20028;-79
2022/09/06 05:33:01;;;;;;;13.00;5.00;;;20.50;99.90;;;;;;4914920;29;20032;-80
2022/09/06 05:35:26;;;;;;;12.40;4.93;;;20.50;99.90;;;;;;4914567;29;20028;-80
2022/09/06 05:37:52;;;;;;;11.57;5.88;;;20.40;99.90;;;;;;4914760;29;20103;-80
2022/09/06 05:40:17;;;;;;;10.65;5.25;;;20.40;99.90;;;;;;4915242;29;20385;-80
2022/09/06 05:42:43;;;;;;;9.93;5.18;;;20.30;99.90;;;;;;4914379;29;20032;-80
2022/09/06 05:45:09;;;;;;;15.48;6.65;;;20.30;99.90;;;;;;4893876;29;20087;-80
2022/09/06 05:47:34;;;;;;;13.75;5.40;;;20.30;99.90;;;;;;4916161;29;20533;-79
2022/09/06 05:50:01;;;;;;;12.40;5.88;;;20.30;99.90;;;;;;4915317;29;20028;-80
2022/09/06 05:52:27;;;;;;;11.70;7.28;;;20.30;99.90;;;;;;4898226;29;20084;-80
2022/09/06 05:54:53;;;;;;;13.82;6.43;;;20.30;99.90;;;;;;4918394;29;20032;-80
2022/09/06 05:57:19;;;;;;;15.88;6.70;;;20.30;99.90;;;;;;4914900;29;20513;-79
2022/09/06 05:59:44;;;;;;;14.13;6.43;;;20.30;99.90;;;;;;4917684;29;20024;-80
2022/09/06 06:02:10;;;;;;;13.40;6.78;;;20.40;99.90;;;;;;4915800;29;20032;-80
2022/09/06 06:04:35;;;;;;;12.93;7.07;;;20.40;99.90;;;;;;4924815;29;20075;-80
2022/09/06 06:07:01;;;;;;;10.57;6.32;;;20.40;99.90;;;;;;4924499;29;20056;-80
2022/09/06 06:09:27;;;;;;;12.07;6.13;;;20.40;99.90;;;;;;4924428;29;20118;-80
2022/09/06 06:11:52;;;;;;;15.93;7.38;;;20.30;99.90;;;;;;4900822;29;20161;-79
2022/09/06 06:14:18;;;;;;;12.73;7.03;;;20.30;99.90;;;;;;4922683;29;20028;-81
2022/09/06 06:16:43;;;;;;;13.63;7.15;;;20.30;99.90;;;;;;4923576;29;20145;-80
2022/09/06 06:19:09;;;;;;;13.45;5.90;;;20.20;99.90;;;;;;4924138;29;20020;-80
2022/09/06 06:21:37;;;;;;;13.88;6.57;;;20.20;99.90;;;;;;4923391;29;20292;-80
2022/09/06 06:24:04;;;;;;;9.57;6.55;;;20.30;99.90;;;;;;4923609;29;20052;-80
2022/09/06 06:26:32;;;;;;;11.80;6.53;;;20.30;99.90;;;;;;4920818;29;20102;-80
2022/09/06 06:29:00;;;;;;;14.63;6.20;;;20.30;99.90;;;;;;4913364;29;20099;-80
2022/09/06 06:31:28;;;;;;;13.68;6.22;;;20.20;99.90;;;;;;4913386;29;20024;-80
2022/09/06 06:33:53;;;;;;;15.20;6.28;;;20.30;99.90;;;;;;4913458;29;20040;-80
2022/09/06 06:36:22;;;;;;;17.50;6.72;;;20.30;99.90;;;;;;4913393;29;20074;-80
2022/09/06 06:38:49;;;;;;;17.83;6.20;;;20.40;99.90;;;;;;4913513;29;20119;-80
2022/09/06 06:41:18;;;;;;;12.15;5.15;;;20.50;99.90;;;;;;4913148;29;20688;-80
2022/09/06 06:43:43;;;;;;;11.23;5.28;;;20.60;99.90;;;;;;4913577;29;20024;-80
2022/09/06 06:46:14;;;;;;;12.35;4.70;;;20.80;99.90;;;;;;4913353;29;20031;-80
2022/09/06 06:48:40;;;;;;;9.02;4.40;;;20.90;99.90;;;;;;4913573;29;20120;-80
2022/09/06 06:51:07;;;;;;;9.45;4.05;;;21.00;99.90;;;;;;4913434;29;20043;-80
2022/09/06 06:53:34;;;;;;;11.73;4.05;;;21.10;99.90;;;;;;4913258;29;20039;-80
2022/09/06 06:56:00;;;;;;;10.85;4.18;;;21.20;99.90;;;;;;4913041;29;20020;-80
2022/09/06 06:58:26;;;;;;;9.80;3.67;;;21.10;99.90;;;;;;4913600;29;20032;-80
2022/09/06 07:00:51;;;;;;;9.02;3.83;;;21.10;99.90;;;;;;4913233;29;20028;-80
2022/09/06 07:03:18;;;;;;;7.55;2.90;;;21.00;99.90;;;;;;4913199;29;20036;-80
2022/09/06 07:05:45;;;;;;;8.60;3.50;;;21.00;99.90;;;;;;4896164;29;20025;-80
2022/09/06 07:08:11;;;;;;;10.68;3.08;;;20.90;99.90;;;;;;4913195;29;20075;-80
2022/09/06 07:10:37;;;;;;;10.73;3.40;;;20.90;99.90;;;;;;4913165;29;20032;-80
2022/09/06 07:13:03;;;;;;;9.07;2.92;;;20.80;99.90;;;;;;4913087;29;20031;-80
2022/09/06 07:15:29;;;;;;;8.73;3.08;;;20.80;99.90;;;;;;4912889;29;20401;-80
2022/09/06 07:17:55;;;;;;;11.93;3.65;;;20.90;99.90;;;;;;4912885;29;20040;-80
2022/09/06 07:20:22;;;;;;;10.35;2.92;;;21.00;99.90;;;;;;4912811;29;20537;-80
2022/09/06 07:22:58;;;;;;;10.27;2.70;;;21.00;99.90;;;;;;4912983;29;20502;-80
2022/09/06 07:25:24;;;;;;;10.68;3.10;;;21.10;99.90;;;;;;4914049;29;20508;-80
2022/09/06 07:28:00;;;;;;;9.15;3.03;;;21.20;99.90;;;;;;4916755;29;20024;-81
2022/09/06 07:30:26;;;;;;;7.82;2.40;;;21.20;99.90;;;;;;4916657;29;20036;-80
2022/09/06 07:32:52;;;;;;;9.88;2.90;;;21.40;99.90;;;;;;4910682;29;20048;-80
2022/09/06 07:35:19;;;;;;;9.23;2.40;;;21.50;99.90;;;;;;4916544;29;20056;-80
2022/09/06 07:37:55;;;;;;;12.20;2.17;;;21.60;99.90;;;;;;4916478;29;20023;-80
2022/09/06 07:40:20;;;;;;;9.68;2.40;;;21.70;99.90;;;;;;4910909;29;20036;-80
2022/09/06 07:42:46;;;;;;;10.07;2.67;;;21.80;99.90;;;;;;4916384;29;20524;-80
2022/09/06 07:45:12;;;;;;;5.35;2.03;;;21.90;99.90;;;;;;4916925;29;20111;-80
2022/09/06 07:47:38;;;;;;;7.18;1.90;;;22.00;99.90;;;;;;4916842;29;20439;-80
2022/09/06 07:50:04;;;;;;;7.40;2.00;;;22.00;99.90;;;;;;4916405;29;20028;-80
2022/09/06 07:52:30;;;;;;;10.95;2.13;;;22.10;99.90;;;;;;4916447;29;20079;-80
2022/09/06 07:54:55;;;;;;;7.80;1.90;;;22.20;99.90;;;;;;4916112;29;20103;-80
2022/09/06 07:57:22;;;;;;;6.82;1.73;;;22.20;99.90;;;;;;4916258;29;20400;-80
2022/09/06 07:59:48;;;;;;;6.07;1.83;;;22.30;99.90;;;;;;4916250;29;20017;-80
2022/09/06 08:02:16;;;;;;;9.65;2.03;;;22.40;99.90;;;;;;4916297;29;20250;-80
2022/09/06 08:04:42;;;;;;;7.00;1.38;;;22.50;99.90;;;;;;4916188;29;20034;-80
2022/09/06 08:07:08;;;;;;;9.50;1.98;;;22.50;99.90;;;;;;4895415;29;20032;-80
2022/09/06 08:09:34;;;;;;;6.38;1.60;;;22.50;99.90;;;;;;4916046;29;20386;-80
2022/09/06 08:12:05;;;;;;;7.40;2.05;;;22.60;99.90;;;;;;4916214;29;20529;-80
2022/09/06 08:14:34;;;;;;;13.18;1.77;;;22.70;99.90;;;;;;4916044;29;20148;-80
2022/09/06 08:17:01;;;;;;;8.65;1.77;;;22.80;99.90;;;;;;4915974;29;20497;-80
2022/09/06 08:19:27;;;;;;;9.05;1.45;;;22.80;99.90;;;;;;4915872;29;20088;-80
2022/09/06 08:21:54;;;;;;;3.35;1.23;;;22.90;99.90;;;;;;4915776;29;20039;-80
2022/09/06 08:24:20;;;;;;;5.97;1.65;;;23.00;99.90;;;;;;4915930;29;20091;-80
2022/09/06 08:26:45;;;;;;;9.65;1.92;;;23.00;99.90;;;;;;4915845;29;20492;-80
2022/09/06 08:29:12;;;;;;;8.07;1.67;;;23.10;99.90;;;;;;4915694;29;20071;-80
2022/09/06 08:31:40;;;;;;;6.35;1.67;;;23.10;99.90;;;;;;4899030;29;20072;-80
2022/09/06 08:34:07;;;;;;;5.32;1.42;;;23.20;99.90;;;;;;4915741;29;20024;-80
2022/09/06 08:36:33;;;;;;;12.23;2.33;;;23.30;99.90;;;;;;4915321;29;20055;-80
2022/09/06 08:39:01;;;;;;;8.20;1.52;;;23.40;99.90;;;;;;4915057;29;20029;-81
2022/09/06 08:41:35;;;;;;;8.30;1.83;;;23.50;99.90;;;;;;4915444;29;20595;-80
2022/09/06 08:44:02;;;;;;;5.45;1.45;;;23.60;99.90;;;;;;4915442;29;20042;-81
2022/09/06 08:46:40;;;;;;;7.78;1.60;;;23.70;99.90;;;;;;4916196;29;20417;-80
2022/09/06 08:49:08;;;;;;;9.07;1.70;;;23.80;99.90;;;;;;4915544;29;20113;-80
2022/09/06 08:51:57;;;;;;;8.23;1.90;;;23.90;99.90;;;;;;4915702;29;20032;-80
2022/09/06 08:54:45;;;;;;;8.77;1.80;;;23.90;99.90;;;;;;4868313;29;20075;-80
2022/09/06 08:57:40;;;;;;;13.60;1.85;;;24.00;99.90;;;;;;4915103;29;20117;-80
2022/09/06 09:00:12;;;;;;;8.50;1.80;;;24.10;99.90;;;;;;4910066;29;20103;-80
2022/09/06 09:02:44;;;;;;;10.20;1.58;;;24.20;99.90;;;;;;4915251;29;20027;-80
2022/09/06 09:05:27;;;;;;;6.68;1.65;;;24.30;99.90;;;;;;4915234;29;20028;-80
2022/09/06 09:08:02;;;;;;;6.15;1.70;;;24.40;99.90;;;;;;4915095;29;20036;-80
2022/09/06 09:10:39;;;;;;;7.32;1.55;;;24.50;99.90;;;;;;4914989;29;20525;-80
2022/09/06 09:13:08;;;;;;;8.55;2.08;;;24.60;99.90;;;;;;4914965;29;20040;-80
2022/09/06 09:15:35;;;;;;;10.63;1.88;;;24.70;99.90;;;;;;4915019;29;20020;-80
2022/09/06 09:18:01;;;;;;;9.45;1.67;;;24.80;99.90;;;;;;4915039;29;20059;-80
2022/09/06 09:20:27;;;;;;;7.47;1.52;;;24.80;99.90;;;;;;4914480;29;20022;-80
2022/09/06 09:22:54;;;;;;;7.35;1.40;;;24.80;99.90;;;;;;4914748;29;20127;-81
2022/09/06 09:25:23;;;;;;;8.85;2.10;;;24.80;99.80;;;;;;4914501;29;20096;-80
2022/09/06 09:27:56;;;;;;;10.10;2.05;;;24.80;99.70;;;;;;4914641;29;20087;-80
2022/09/06 09:30:24;;;;;;;8.20;1.85;;;24.90;99.70;;;;;;4914806;29;20055;-81
2022/09/06 09:32:50;;;;;;;6.22;1.80;;;25.10;99.50;;;;;;4914701;29;20072;-80
2022/09/06 09:35:20;;;;;;;8.40;1.50;;;25.30;99.60;;;;;;4914654;29;20472;-80
2022/09/06 09:37:47;;;;;;;5.78;1.30;;;25.40;99.10;;;;;;4914712;29;20505;-80
2022/09/06 09:40:24;;;;;;;8.15;1.85;;;25.40;98.80;;;;;;4914387;29;20088;-80
2022/09/06 09:42:51;;;;;;;7.78;1.42;;;25.30;98.40;;;;;;4914297;29;20131;-80
2022/09/06 09:45:20;;;;;;;9.25;1.80;;;25.40;98.90;;;;;;4914546;29;20020;-80
2022/09/06 09:47:46;;;;;;;5.45;1.40;;;25.50;98.50;;;;;;4914711;29;20032;-80
2022/09/06 09:50:27;;;;;;;7.53;1.50;;;25.60;97.90;;;;;;4914330;29;20017;-80
2022/09/06 09:52:53;;;;;;;7.78;1.63;;;25.70;97.30;;;;;;4914350;29;20498;-80
2022/09/06 09:55:24;;;;;;;6.68;1.65;;;25.50;97.30;;;;;;4914261;29;20490;-80
2022/09/06 09:57:53;;;;;;;6.07;1.98;;;25.50;97.80;;;;;;4914185;29;20094;-80
2022/09/06 10:01:08;;;;;;;6.18;1.38;;;25.70;97.30;;;;;;4914138;29;20561;-80
2022/09/06 10:03:34;;;;;;;;;;;26.00;96.70;;;;;;4873905;29;20501;-80
2022/09/06 10:05:59;;;;;;;6.43;1.42;;;26.20;96.50;;;;;;4913973;29;19963;-80
2022/09/06 10:08:26;;;;;;;7.80;1.45;;;26.30;96.50;;;;;;4913931;29;20039;-80
2022/09/06 10:10:52;;;;;;;6.00;1.38;;;26.40;96.40;;;;;;4913991;29;20024;-80
2022/09/06 10:13:36;;;;;;;3.78;1.10;;;26.50;95.50;;;;;;4913948;29;20054;-80
2022/09/06 10:16:02;;;;;;;8.90;1.50;;;26.50;94.40;;;;;;4911108;29;20052;-80
2022/09/06 10:18:39;;;;;;;9.07;1.60;;;26.40;94.40;;;;;;4913783;29;20048;-81
2022/09/06 10:21:12;;;;;;;7.60;1.60;;;26.10;95.20;;;;;;4913823;29;20067;-80
2022/09/06 10:23:47;;;;;;;6.32;1.42;;;26.00;95.40;;;;;;4913629;29;20063;-80
2022/09/06 10:26:43;;;;;;;6.20;2.47;;;25.90;95.90;;;;;;4913669;29;20020;-80
2022/09/06 10:29:09;;;;;;;6.57;1.52;;;26.00;95.70;;;;;;4912899;29;20067;-80
2022/09/06 10:31:58;;;;;;;7.13;1.42;;;26.10;96.10;;;;;;4913800;29;20032;-80
2022/09/06 10:34:42;;;;;;;11.18;2.05;;;26.20;96.10;;;;;;4913782;29;20126;-80
2022/09/06 10:37:28;;;;;;;5.95;1.52;;;26.20;95.00;;;;;;4908903;29;20024;-80
2022/09/06 10:40:08;;;;;;;6.82;1.52;;;26.20;94.90;;;;;;4896529;29;20382;-80
2022/09/06 10:42:40;;;;;;;4.18;1.20;;;26.20;95.10;;;;;;4913359;29;20040;-80
2022/09/06 10:45:12;;;;;;;7.78;1.42;;;26.20;95.90;;;;;;4913481;29;20107;-81
2022/09/06 10:47:55;;;;;;;5.22;1.67;;;26.30;95.70;;;;;;4895092;29;20386;-81
2022/09/06 10:50:27;;;;;;;5.95;1.10;;;26.40;94.70;;;;;;4909755;29;20474;-80
2022/09/06 10:52:54;;;;;;;6.60;1.55;;;26.40;94.80;;;;;;4914518;29;20024;-81
2022/09/06 10:55:21;;;;;;;6.72;1.63;;;26.30;94.40;;;;;;4913522;29;20111;-81
2022/09/06 10:58:03;;;;;;;6.10;1.77;;;26.40;94.70;;;;;;4913458;29;20028;-80
2022/09/06 11:00:34;;;;;;;7.57;1.80;;;26.50;94.50;;;;;;4915742;29;20035;-80
2022/09/06 11:03:12;;;;;;;6.70;1.73;;;26.60;94.60;;;;;;4919183;29;20036;-80
2022/09/06 11:05:45;;;;;;;6.45;2.00;;;26.70;94.00;;;;;;4919487;29;20493;-80
2022/09/06 11:08:37;;;;;;;6.00;1.77;;;26.60;94.50;;;;;;4919842;29;20071;-80
2022/09/06 11:11:10;;;;;;;11.05;1.40;;;26.60;94.10;;;;;;4916508;29;20477;-80
2022/09/06 11:13:36;;;;;;;8.48;1.80;;;26.40;94.20;;;;;;4919506;29;20016;-80
2022/09/06 11:16:14;;;;;;;8.13;1.60;;;26.40;94.90;;;;;;4919684;29;20370;-80
2022/09/06 11:18:43;;;;;;;8.27;1.80;;;26.50;94.40;;;;;;4919373;29;20048;-80
2022/09/06 11:21:33;;;;;;;8.88;1.88;;;26.50;94.40;;;;;;4919251;29;20095;-80
2022/09/06 11:24:41;;;;;;;8.18;1.95;;;26.50;93.60;;;;;;4919576;29;20044;-80
2022/09/06 11:27:19;;;;;;;4.05;1.40;;;26.60;93.30;;;;;;4917995;29;20111;-80
2022/09/06 11:29:54;;;;;;;18.48;3.83;;;26.90;93.10;;;;;;4914454;29;20532;-80
2022/09/06 11:32:49;;;;;;;18.45;2.22;;;26.10;99.90;;;;;;4919340;29;20499;-80
2022/09/06 11:35:28;;;;;;;13.25;2.30;;;25.20;99.90;;;;;;4877647;29;20444;-80
2022/09/06 11:38:16;;;;;;;15.77;2.28;;;24.80;99.90;;;;;;4913953;29;20028;-80
2022/09/06 11:40:45;;;;;;;14.38;2.97;;;24.50;99.90;;;;;;4919159;29;20024;-80
2022/09/06 11:43:17;;;;;;;20.00;2.75;;;24.50;99.90;;;;;;4918952;29;20042;-80
2022/09/06 11:45:51;;;;;;;15.02;2.60;;;24.60;99.90;;;;;;4919492;29;20024;-80
2022/09/06 11:48:23;;;;;;;14.25;2.92;;;24.60;99.90;;;;;;4918977;29;20032;-80
2022/09/06 11:50:57;;;;;;;18.45;2.88;;;24.30;99.90;;;;;;4919027;29;20103;-80
2022/09/06 11:53:32;;;;;;;17.17;2.20;;;24.30;99.90;;;;;;4919195;29;20371;-80
2022/09/06 11:56:01;;;;;;;12.10;3.08;;;24.40;99.90;;;;;;4919057;29;20031;-80
2022/09/06 11:59:14;;;;;;;12.52;2.30;;;24.40;99.90;;;;;;4919519;29;20038;-80
2022/09/06 12:01:40;;;;;;;13.35;2.40;;;24.60;99.90;;;;;;4823034;29;20273;-80
2022/09/06 12:04:07;;;;;;;12.50;2.05;;;24.50;99.90;;;;;;4899205;29;20282;-81
2022/09/06 12:07:09;;;;;;;13.98;2.67;;;24.60;99.90;;;;;;4916878;29;20469;-80
2022/09/06 12:09:45;;;;;;;12.13;2.88;;;24.80;99.90;;;;;;4917039;29;20043;-80
2022/09/06 12:12:31;;;;;;;14.23;2.15;;;24.60;99.90;;;;;;4917490;29;20024;-81
2022/09/06 12:14:56;;;;;;;9.88;2.42;;;24.70;99.90;;;;;;4915855;29;20615;-80
2022/09/06 12:17:23;;;;;;;12.88;1.90;;;24.70;99.90;;;;;;4916040;29;20109;-81
2022/09/06 12:20:05;;;;;;;10.98;2.38;;;24.70;99.90;;;;;;4915851;29;20032;-81
2022/09/06 12:22:39;;;;;;;10.35;2.30;;;24.90;99.90;;;;;;4915711;29;20024;-81
2022/09/06 12:25:34;;;;;;;6.60;1.98;;;25.10;99.90;;;;;;4915587;29;20038;-81
2022/09/06 12:28:03;;;;;;;11.25;1.80;;;24.90;99.90;;;;;;4910168;29;20024;-81
2022/09/06 12:30:41;;;;;;;6.93;1.30;;;25.00;99.90;;;;;;4915753;29;20036;-81
2022/09/06 12:33:16;;;;;;;12.18;2.35;;;25.10;99.90;;;;;;4915816;29;20392;-81
2022/09/06 12:35:42;;;;;;;7.25;2.97;;;25.20;99.90;;;;;;4915816;29;20032;-80
2022/09/06 12:38:13;;;;;;;9.35;1.70;;;25.40;99.90;;;;;;4915628;29;20396;-81
2022/09/06 12:40:46;;;;;;;9.77;1.67;;;25.70;99.90;;;;;;4915393;29;20036;-81
2022/09/06 12:43:15;;;;;;;9.00;1.70;;;25.70;99.90;;;;;;4915556;29;20036;-81
2022/09/06 12:45:46;;;;;;;7.00;1.17;;;25.70;99.80;;;;;;4915309;29;20060;-81
2022/09/06 12:48:29;;;;;;;5.50;1.13;;;25.60;99.90;;;;;;4915399;29;20105;-81
2022/09/06 12:51:04;;;;;;;8.70;1.90;;;25.40;99.90;;;;;;4915663;29;20028;-81
2022/09/06 12:53:30;;;;;;;8.40;1.40;;;25.40;99.90;;;;;;4910131;29;20064;-81
2022/09/06 12:56:07;;;;;;;7.85;1.30;;;25.70;99.90;;;;;;4915331;29;20039;-81
2022/09/06 12:58:33;;;;;;;5.93;1.40;;;25.90;99.90;;;;;;4915340;29;20028;-81
2022/09/06 13:01:21;;;;;;;6.88;1.80;;;26.20;99.90;;;;;;4915274;29;20024;-81